sensor_id;sensor_type;location;lat;lon;timestamp;pressure;altitude;pressure_sealevel;temperature;humidity
11808;BME280;5961;42.640;23.380;2023-12-14T00:00:38;93042.84;;;7.53;97.20
11808;BME280;5961;42.640;23.380;2023-12-14T00:03:06;93026.00;;;7.57;97.14
11808;BME280;5961;42.640;23.380;2023-12-14T00:05:33;93061.56;;;7.60;96.92
11808;BME280;5961;42.640;23.380;2023-12-14T00:08:00;93040.00;;;7.58;96.56
11808;BME280;5961;42.640;23.380;2023-12-14T00:10:27;93031.09;;;7.50;96.90
11808;BME280;5961;42.640;23.380;2023-12-14T00:12:53;93051.66;;;7.57;97.14
11808;BME280;5961;42.640;23.380;2023-12-14T00:15:20;93022.56;;;7.57;97.03
11808;BME280;5961;42.640;23.380;2023-12-14T00:17:47;93035.03;;;7.56;97.33
11808;BME280;5961;42.640;23.380;2023-12-14T00:20:15;93039.53;;;7.56;97.06
11808;BME280;5961;42.640;23.380;2023-12-14T00:22:42;93056.69;;;7.62;96.77
11808;BME280;5961;42.640;23.380;2023-12-14T00:25:08;93044.09;;;7.55;97.04
11808;BME280;5961;42.640;23.380;2023-12-14T00:27:35;93040.22;;;7.53;96.90
11808;BME280;5961;42.640;23.380;2023-12-14T00:30:02;93048.75;;;7.46;97.20
11808;BME280;5961;42.640;23.380;2023-12-14T00:32:29;93037.16;;;7.51;96.91
11808;BME280;5961;42.640;23.380;2023-12-14T00:34:56;93048.28;;;7.44;97.10
11808;BME280;5961;42.640;23.380;2023-12-14T00:37:24;93036.09;;;7.40;97.37
11808;BME280;5961;42.640;23.380;2023-12-14T00:39:50;93046.00;;;7.43;97.38
11808;BME280;5961;42.640;23.380;2023-12-14T00:42:17;93016.28;;;7.34;97.86
11808;BME280;5961;42.640;23.380;2023-12-14T00:44:44;93047.66;;;7.35;97.90
11808;BME280;5961;42.640;23.380;2023-12-14T00:47:10;93047.22;;;7.33;98.06
11808;BME280;5961;42.640;23.380;2023-12-14T00:49:37;93042.50;;;7.27;98.35
11808;BME280;5961;42.640;23.380;2023-12-14T00:52:04;93033.50;;;7.28;98.00
11808;BME280;5961;42.640;23.380;2023-12-14T00:54:32;93014.56;;;7.13;98.32
11808;BME280;5961;42.640;23.380;2023-12-14T00:56:59;93033.50;;;7.28;98.49
11808;BME280;5961;42.640;23.380;2023-12-14T00:59:25;93033.03;;;7.26;98.60
11808;BME280;5961;42.640;23.380;2023-12-14T01:01:52;92977.44;;;6.94;98.60
11808;BME280;5961;42.640;23.380;2023-12-14T01:04:19;93022.91;;;7.28;98.80
11808;BME280;5961;42.640;23.380;2023-12-14T01:06:45;93046.81;;;7.31;98.89
11808;BME280;5961;42.640;23.380;2023-12-14T01:09:12;93016.97;;;7.31;98.55
11808;BME280;5961;42.640;23.380;2023-12-14T01:11:40;93054.06;;;7.34;98.66
11808;BME280;5961;42.640;23.380;2023-12-14T01:14:07;93026.19;;;7.37;98.32
11808;BME280;5961;42.640;23.380;2023-12-14T01:16:33;93016.03;;;7.39;98.21
11808;BME280;5961;42.640;23.380;2023-12-14T01:19:00;93048.97;;;7.41;98.15
11808;BME280;5961;42.640;23.380;2023-12-14T01:21:26;93018.69;;;7.39;98.01
11808;BME280;5961;42.640;23.380;2023-12-14T01:23:53;93049.53;;;7.35;98.06
11808;BME280;5961;42.640;23.380;2023-12-14T01:26:20;93002.19;;;7.30;98.04
11808;BME280;5961;42.640;23.380;2023-12-14T01:28:48;93039.97;;;7.30;97.84
11808;BME280;5961;42.640;23.380;2023-12-14T01:31:14;92984.09;;;7.16;98.40
11808;BME280;5961;42.640;23.380;2023-12-14T01:33:41;93042.41;;;7.23;98.66
11808;BME280;5961;42.640;23.380;2023-12-14T01:36:08;93054.19;;;7.26;98.60
11808;BME280;5961;42.640;23.380;2023-12-14T01:38:35;93022.03;;;7.24;99.07
11808;BME280;5961;42.640;23.380;2023-12-14T01:41:02;93045.84;;;7.11;98.90
11808;BME280;5961;42.640;23.380;2023-12-14T01:43:28;92988.81;;;7.10;99.50
11808;BME280;5961;42.640;23.380;2023-12-14T01:45:56;93026.50;;;6.95;99.88
11808;BME280;5961;42.640;23.380;2023-12-14T01:48:23;93021.34;;;6.99;99.89
11808;BME280;5961;42.640;23.380;2023-12-14T01:50:50;93016.16;;;7.02;99.86
11808;BME280;5961;42.640;23.380;2023-12-14T01:53:16;93033.97;;;7.05;100.00
11808;BME280;5961;42.640;23.380;2023-12-14T01:55:43;93016.38;;;7.09;99.87
11808;BME280;5961;42.640;23.380;2023-12-14T01:58:10;93025.38;;;7.08;99.30
11808;BME280;5961;42.640;23.380;2023-12-14T02:00:39;93017.06;;;6.94;99.61
11808;BME280;5961;42.640;23.380;2023-12-14T02:03:08;93022.97;;;7.03;99.52
11808;BME280;5961;42.640;23.380;2023-12-14T02:05:36;93038.16;;;7.06;99.59
11808;BME280;5961;42.640;23.380;2023-12-14T02:08:03;92974.81;;;6.94;99.54
11808;BME280;5961;42.640;23.380;2023-12-14T02:10:29;93017.59;;;7.00;99.83
11808;BME280;5961;42.640;23.380;2023-12-14T02:12:56;93023.84;;;7.07;99.77
11808;BME280;5961;42.640;23.380;2023-12-14T02:15:23;92997.41;;;7.07;99.60
11808;BME280;5961;42.640;23.380;2023-12-14T02:17:49;93007.91;;;7.04;99.70
11808;BME280;5961;42.640;23.380;2023-12-14T02:20:17;92998.09;;;7.04;99.38
11808;BME280;5961;42.640;23.380;2023-12-14T02:22:52;92987.53;;;7.04;99.46
11808;BME280;5961;42.640;23.380;2023-12-14T02:25:19;92978.50;;;7.05;99.49
11808;BME280;5961;42.640;23.380;2023-12-14T02:27:46;92986.44;;;7.05;99.73
11808;BME280;5961;42.640;23.380;2023-12-14T02:30:14;92978.72;;;7.12;99.82
11808;BME280;5961;42.640;23.380;2023-12-14T02:32:41;92986.28;;;7.14;98.98
11808;BME280;5961;42.640;23.380;2023-12-14T02:35:08;92948.31;;;6.79;99.03
11808;BME280;5961;42.640;23.380;2023-12-14T02:37:35;92976.97;;;7.04;99.66
11808;BME280;5961;42.640;23.380;2023-12-14T02:40:06;92992.25;;;7.11;99.63
11808;BME280;5961;42.640;23.380;2023-12-14T02:42:33;92980.13;;;7.22;99.75
11808;BME280;5961;42.640;23.380;2023-12-14T02:45:00;93004.63;;;7.23;98.85
11808;BME280;5961;42.640;23.380;2023-12-14T02:47:27;92991.00;;;7.21;99.02
11808;BME280;5961;42.640;23.380;2023-12-14T02:49:54;92995.63;;;7.24;99.07
11808;BME280;5961;42.640;23.380;2023-12-14T02:52:21;93024.69;;;7.24;98.95
11808;BME280;5961;42.640;23.380;2023-12-14T02:54:47;93000.59;;;7.25;98.99
11808;BME280;5961;42.640;23.380;2023-12-14T02:57:15;93018.72;;;7.27;98.46
11808;BME280;5961;42.640;23.380;2023-12-14T02:59:42;93019.06;;;7.25;98.86
11808;BME280;5961;42.640;23.380;2023-12-14T03:02:09;93012.66;;;7.26;98.60
11808;BME280;5961;42.640;23.380;2023-12-14T03:04:37;93010.13;;;7.30;98.06
11808;BME280;5961;42.640;23.380;2023-12-14T03:07:04;93009.03;;;7.31;98.23
11808;BME280;5961;42.640;23.380;2023-12-14T03:09:30;92999.13;;;7.28;97.79
11808;BME280;5961;42.640;23.380;2023-12-14T03:11:57;93021.47;;;7.30;98.06
11808;BME280;5961;42.640;23.380;2023-12-14T03:14:25;93010.56;;;7.32;97.90
11808;BME280;5961;42.640;23.380;2023-12-14T03:16:52;92975.09;;;7.33;97.95
11808;BME280;5961;42.640;23.380;2023-12-14T03:19:18;92989.19;;;7.37;97.84
11808;BME280;5961;42.640;23.380;2023-12-14T03:21:45;92986.97;;;7.39;97.86
11808;BME280;5961;42.640;23.380;2023-12-14T03:24:12;92978.31;;;7.26;97.66
11808;BME280;5961;42.640;23.380;2023-12-14T03:26:38;92990.72;;;7.38;98.12
11808;BME280;5961;42.640;23.380;2023-12-14T03:29:05;92984.75;;;7.41;97.88
11808;BME280;5961;42.640;23.380;2023-12-14T03:31:34;92978.47;;;7.45;97.47
11808;BME280;5961;42.640;23.380;2023-12-14T03:34:01;92993.22;;;7.46;97.02
11808;BME280;5961;42.640;23.380;2023-12-14T03:36:28;92981.13;;;7.45;97.06
11808;BME280;5961;42.640;23.380;2023-12-14T03:38:55;92975.66;;;7.54;97.15
11808;BME280;5961;42.640;23.380;2023-12-14T03:41:22;92981.47;;;7.59;96.80
11808;BME280;5961;42.640;23.380;2023-12-14T03:43:48;92965.28;;;7.61;96.25
11808;BME280;5961;42.640;23.380;2023-12-14T03:46:15;92964.16;;;7.62;96.01
11808;BME280;5961;42.640;23.380;2023-12-14T03:48:43;92972.63;;;7.67;95.92
11808;BME280;5961;42.640;23.380;2023-12-14T03:51:10;92986.94;;;7.66;96.00
11808;BME280;5961;42.640;23.380;2023-12-14T03:53:36;92949.34;;;7.73;95.74
11808;BME280;5961;42.640;23.380;2023-12-14T03:56:03;92963.56;;;7.68;95.55
11808;BME280;5961;42.640;23.380;2023-12-14T03:58:30;92967.88;;;7.73;96.06
11808;BME280;5961;42.640;23.380;2023-12-14T04:00:57;92946.34;;;7.74;95.68
11808;BME280;5961;42.640;23.380;2023-12-14T04:03:24;92972.69;;;7.71;96.11
11808;BME280;5961;42.640;23.380;2023-12-14T04:05:52;92952.00;;;7.73;95.87
11808;BME280;5961;42.640;23.380;2023-12-14T04:08:18;92965.22;;;7.73;95.78
11808;BME280;5961;42.640;23.380;2023-12-14T04:10:45;92946.53;;;7.66;96.00
11808;BME280;5961;42.640;23.380;2023-12-14T04:13:12;92971.88;;;7.67;95.86
11808;BME280;5961;42.640;23.380;2023-12-14T04:15:38;92977.31;;;7.74;95.84
11808;BME280;5961;42.640;23.380;2023-12-14T04:18:07;92975.13;;;7.76;95.84
11808;BME280;5961;42.640;23.380;2023-12-14T04:20:34;92971.69;;;7.76;95.75
11808;BME280;5961;42.640;23.380;2023-12-14T04:23:02;92994.72;;;7.75;95.64
11808;BME280;5961;42.640;23.380;2023-12-14T04:25:29;92990.97;;;7.76;95.92
11808;BME280;5961;42.640;23.380;2023-12-14T04:27:56;92977.31;;;7.74;95.84
11808;BME280;5961;42.640;23.380;2023-12-14T04:30:22;92977.31;;;7.74;96.01
11808;BME280;5961;42.640;23.380;2023-12-14T04:32:49;92978.66;;;7.68;96.08
11808;BME280;5961;42.640;23.380;2023-12-14T04:35:16;92964.53;;;7.76;95.99
11808;BME280;5961;42.640;23.380;2023-12-14T04:37:42;92975.53;;;7.78;95.92
11808;BME280;5961;42.640;23.380;2023-12-14T04:40:11;93003.53;;;7.79;96.03
11808;BME280;5961;42.640;23.380;2023-12-14T04:42:38;92996.34;;;7.80;96.03
11808;BME280;5961;42.640;23.380;2023-12-14T04:45:06;92981.94;;;7.77;96.16
11808;BME280;5961;42.640;23.380;2023-12-14T04:47:34;92979.03;;;7.82;95.70
11808;BME280;5961;42.640;23.380;2023-12-14T04:50:01;92979.03;;;7.82;95.84
11808;BME280;5961;42.640;23.380;2023-12-14T04:52:28;92983.22;;;7.83;95.67
11808;BME280;5961;42.640;23.380;2023-12-14T04:54:54;92976.06;;;7.84;95.95
11808;BME280;5961;42.640;23.380;2023-12-14T04:57:22;92985.84;;;7.83;95.87
11808;BME280;5961;42.640;23.380;2023-12-14T04:59:49;92990.31;;;7.79;95.79
11808;BME280;5961;42.640;23.380;2023-12-14T05:02:16;92979.28;;;7.77;95.80
11808;BME280;5961;42.640;23.380;2023-12-14T05:04:42;92992.59;;;7.81;96.07
11808;BME280;5961;42.640;23.380;2023-12-14T05:07:09;92994.38;;;7.77;96.07
11808;BME280;5961;42.640;23.380;2023-12-14T05:09:36;92969.81;;;7.76;96.43
11808;BME280;5961;42.640;23.380;2023-12-14T05:12:03;92983.97;;;7.68;96.51
11808;BME280;5961;42.640;23.380;2023-12-14T05:14:31;92976.47;;;7.70;96.65
11808;BME280;5961;42.640;23.380;2023-12-14T05:16:58;92962.97;;;7.59;96.79
11808;BME280;5961;42.640;23.380;2023-12-14T05:19:25;92958.72;;;7.55;96.85
11808;BME280;5961;42.640;23.380;2023-12-14T05:21:52;92992.25;;;7.66;96.90
11808;BME280;5961;42.640;23.380;2023-12-14T05:24:19;92969.44;;;7.62;96.96
11808;BME280;5961;42.640;23.380;2023-12-14T05:26:46;92974.56;;;7.55;97.52
11808;BME280;5961;42.640;23.380;2023-12-14T05:29:12;92976.75;;;7.53;97.80
11808;BME280;5961;42.640;23.380;2023-12-14T05:31:40;92965.50;;;7.56;97.71
11808;BME280;5961;42.640;23.380;2023-12-14T05:34:07;92982.16;;;7.56;97.95
11808;BME280;5961;42.640;23.380;2023-12-14T05:36:34;92996.56;;;7.59;97.73
11808;BME280;5961;42.640;23.380;2023-12-14T05:39:00;92975.00;;;7.57;97.79
11808;BME280;5961;42.640;23.380;2023-12-14T05:41:28;92990.59;;;7.62;97.82
11808;BME280;5961;42.640;23.380;2023-12-14T05:43:56;92955.72;;;7.29;97.72
11808;BME280;5961;42.640;23.380;2023-12-14T05:46:23;92985.56;;;7.57;97.78
11808;BME280;5961;42.640;23.380;2023-12-14T05:48:51;92997.25;;;7.56;97.52
11808;BME280;5961;42.640;23.380;2023-12-14T05:51:28;93015.78;;;7.44;98.06
11808;BME280;5961;42.640;23.380;2023-12-14T05:53:54;92983.75;;;7.45;98.31
11808;BME280;5961;42.640;23.380;2023-12-14T05:56:21;92982.56;;;7.43;98.20
11808;BME280;5961;42.640;23.380;2023-12-14T05:58:48;93001.69;;;7.52;98.15
11808;BME280;5961;42.640;23.380;2023-12-14T06:01:16;92995.72;;;7.55;97.99
11808;BME280;5961;42.640;23.380;2023-12-14T06:03:43;93015.78;;;7.44;98.38
11808;BME280;5961;42.640;23.380;2023-12-14T06:06:12;93006.97;;;7.52;98.04
11808;BME280;5961;42.640;23.380;2023-12-14T06:08:39;92985.41;;;7.38;97.80
11808;BME280;5961;42.640;23.380;2023-12-14T06:11:06;93003.88;;;7.50;98.17
11808;BME280;5961;42.640;23.380;2023-12-14T06:13:33;92990.25;;;7.48;97.77
11808;BME280;5961;42.640;23.380;2023-12-14T06:16:00;92977.53;;;7.26;97.75
11808;BME280;5961;42.640;23.380;2023-12-14T06:18:27;93028.44;;;7.50;97.76
11808;BME280;5961;42.640;23.380;2023-12-14T06:20:53;93034.94;;;7.53;97.69
11808;BME280;5961;42.640;23.380;2023-12-14T06:23:21;93028.22;;;7.55;97.55
11808;BME280;5961;42.640;23.380;2023-12-14T06:25:48;93040.41;;;7.60;97.39
11808;BME280;5961;42.640;23.380;2023-12-14T06:28:15;93029.63;;;7.53;97.49
11808;BME280;5961;42.640;23.380;2023-12-14T06:30:41;93043.16;;;7.63;96.80
11808;BME280;5961;42.640;23.380;2023-12-14T06:33:08;93039.06;;;7.66;97.00
11808;BME280;5961;42.640;23.380;2023-12-14T06:35:35;93050.75;;;7.65;96.95
11808;BME280;5961;42.640;23.380;2023-12-14T06:38:02;93039.94;;;7.70;96.97
11808;BME280;5961;42.640;23.380;2023-12-14T06:40:30;93057.25;;;7.67;97.15
11808;BME280;5961;42.640;23.380;2023-12-14T06:42:56;93060.00;;;7.59;96.88
11808;BME280;5961;42.640;23.380;2023-12-14T06:45:23;93036.41;;;7.66;96.10
11808;BME280;5961;42.640;23.380;2023-12-14T06:47:50;93036.09;;;7.40;97.75
11808;BME280;5961;42.640;23.380;2023-12-14T06:50:16;93063.78;;;7.58;98.09
11808;BME280;5961;42.640;23.380;2023-12-14T06:52:43;93061.47;;;7.56;98.92
11808;BME280;5961;42.640;23.380;2023-12-14T06:55:10;93049.06;;;7.45;98.57
11808;BME280;5961;42.640;23.380;2023-12-14T06:57:39;93067.03;;;7.39;99.45
11808;BME280;5961;42.640;23.380;2023-12-14T07:00:07;93081.88;;;7.44;99.28
11808;BME280;5961;42.640;23.380;2023-12-14T07:02:34;93058.56;;;7.34;99.43
11808;BME280;5961;42.640;23.380;2023-12-14T07:05:01;93050.31;;;7.35;98.75
11808;BME280;5961;42.640;23.380;2023-12-14T07:07:28;93051.50;;;7.38;99.21
11808;BME280;5961;42.640;23.380;2023-12-14T07:09:54;93063.31;;;7.40;99.35
11808;BME280;5961;42.640;23.380;2023-12-14T07:12:21;93083.66;;;7.40;99.32
11808;BME280;5961;42.640;23.380;2023-12-14T07:14:49;93046.66;;;7.40;99.13
11808;BME280;5961;42.640;23.380;2023-12-14T07:17:16;93065.69;;;7.45;99.00
11808;BME280;5961;42.640;23.380;2023-12-14T07:19:42;93069.44;;;7.44;98.96
11808;BME280;5961;42.640;23.380;2023-12-14T07:22:08;93069.63;;;7.51;98.51
11808;BME280;5961;42.640;23.380;2023-12-14T07:24:35;93079.66;;;7.58;98.33
11808;BME280;5961;42.640;23.380;2023-12-14T07:27:01;93087.00;;;7.64;98.20
11808;BME280;5961;42.640;23.380;2023-12-14T07:29:29;93087.53;;;7.70;97.71
11808;BME280;5961;42.640;23.380;2023-12-14T07:31:57;93083.25;;;7.65;97.68
11808;BME280;5961;42.640;23.380;2023-12-14T07:34:23;93064.59;;;7.74;97.39
11808;BME280;5961;42.640;23.380;2023-12-14T07:36:53;93100.50;;;7.75;97.28
11808;BME280;5961;42.640;23.380;2023-12-14T07:39:20;93085.94;;;7.81;96.81
11808;BME280;5961;42.640;23.380;2023-12-14T07:41:47;93101.66;;;7.90;96.72
11808;BME280;5961;42.640;23.380;2023-12-14T07:44:13;93090.50;;;7.96;96.35
11808;BME280;5961;42.640;23.380;2023-12-14T07:46:40;93112.53;;;8.00;96.32
11808;BME280;5961;42.640;23.380;2023-12-14T07:49:09;93092.75;;;8.10;95.48
11808;BME280;5961;42.640;23.380;2023-12-14T07:51:36;93114.53;;;8.19;95.43
11808;BME280;5961;42.640;23.380;2023-12-14T07:54:03;93107.13;;;8.24;94.86
11808;BME280;5961;42.640;23.380;2023-12-14T07:56:30;93103.56;;;8.33;94.66
11808;BME280;5961;42.640;23.380;2023-12-14T07:58:58;93111.25;;;8.38;94.44
11808;BME280;5961;42.640;23.380;2023-12-14T08:01:24;93108.53;;;8.50;93.76
11808;BME280;5961;42.640;23.380;2023-12-14T08:03:51;93098.22;;;8.60;93.74
11808;BME280;5961;42.640;23.380;2023-12-14T08:06:19;93120.34;;;8.68;93.70
11808;BME280;5961;42.640;23.380;2023-12-14T08:08:46;93109.91;;;8.75;93.08
11808;BME280;5961;42.640;23.380;2023-12-14T08:11:12;93121.38;;;8.79;92.67
11808;BME280;5961;42.640;23.380;2023-12-14T08:13:39;93110.84;;;8.82;92.19
11808;BME280;5961;42.640;23.380;2023-12-14T08:16:07;93114.03;;;8.88;92.36
11808;BME280;5961;42.640;23.380;2023-12-14T08:18:34;93106.13;;;8.92;92.42
11808;BME280;5961;42.640;23.380;2023-12-14T08:21:01;93109.03;;;9.02;92.12
11808;BME280;5961;42.640;23.380;2023-12-14T08:23:29;93117.50;;;9.08;92.62
11808;BME280;5961;42.640;23.380;2023-12-14T08:25:56;93148.69;;;9.14;91.66
11808;BME280;5961;42.640;23.380;2023-12-14T08:28:23;93114.72;;;9.20;91.46
11808;BME280;5961;42.640;23.380;2023-12-14T08:30:49;93134.47;;;9.22;91.47
11808;BME280;5961;42.640;23.380;2023-12-14T08:33:16;93143.63;;;9.25;91.34
11808;BME280;5961;42.640;23.380;2023-12-14T08:35:43;93129.34;;;9.29;91.12
11808;BME280;5961;42.640;23.380;2023-12-14T08:38:10;93124.13;;;9.33;90.86
11808;BME280;5961;42.640;23.380;2023-12-14T08:40:39;93139.25;;;9.32;90.50
11808;BME280;5961;42.640;23.380;2023-12-14T08:43:05;93128.88;;;9.43;90.00
11808;BME280;5961;42.640;23.380;2023-12-14T08:45:32;93140.75;;;9.49;89.68
11808;BME280;5961;42.640;23.380;2023-12-14T08:47:59;93111.66;;;9.53;89.04
11808;BME280;5961;42.640;23.380;2023-12-14T08:50:26;93144.66;;;9.55;88.99
11808;BME280;5961;42.640;23.380;2023-12-14T08:52:53;93103.00;;;9.36;89.17
11808;BME280;5961;42.640;23.380;2023-12-14T08:55:19;93142.72;;;9.52;88.97
11808;BME280;5961;42.640;23.380;2023-12-14T08:57:48;93152.72;;;9.59;88.88
11808;BME280;5961;42.640;23.380;2023-12-14T09:00:15;93108.06;;;9.61;89.00
11808;BME280;5961;42.640;23.380;2023-12-14T09:02:42;93133.03;;;9.60;88.99
11808;BME280;5961;42.640;23.380;2023-12-14T09:05:11;93086.22;;;9.32;88.71
11808;BME280;5961;42.640;23.380;2023-12-14T09:07:38;93145.00;;;9.69;88.70
11808;BME280;5961;42.640;23.380;2023-12-14T09:10:06;93132.53;;;9.73;88.73
11808;BME280;5961;42.640;23.380;2023-12-14T09:12:33;93131.44;;;9.74;88.66
11808;BME280;5961;42.640;23.380;2023-12-14T09:15:02;93141.84;;;9.83;88.69
11808;BME280;5961;42.640;23.380;2023-12-14T09:17:29;93124.41;;;9.82;88.99
11808;BME280;5961;42.640;23.380;2023-12-14T09:19:58;93120.06;;;9.93;88.68
11808;BME280;5961;42.640;23.380;2023-12-14T09:22:25;93101.41;;;9.89;88.55
11808;BME280;5961;42.640;23.380;2023-12-14T09:24:51;93120.63;;;10.02;88.21
11808;BME280;5961;42.640;23.380;2023-12-14T09:27:18;93112.03;;;10.09;88.11
11808;BME280;5961;42.640;23.380;2023-12-14T09:29:45;93109.13;;;10.14;88.06
11808;BME280;5961;42.640;23.380;2023-12-14T09:32:14;93116.03;;;10.18;87.15
11808;BME280;5961;42.640;23.380;2023-12-14T09:34:42;93120.28;;;10.23;87.28
11808;BME280;5961;42.640;23.380;2023-12-14T09:37:09;93142.78;;;10.29;86.73
11808;BME280;5961;42.640;23.380;2023-12-14T09:39:36;93127.69;;;10.33;86.54
11808;BME280;5961;42.640;23.380;2023-12-14T09:42:04;93129.97;;;10.34;86.12
11808;BME280;5961;42.640;23.380;2023-12-14T09:44:31;93134.59;;;10.37;85.71
11808;BME280;5961;42.640;23.380;2023-12-14T09:46:59;93111.94;;;10.43;85.97
11808;BME280;5961;42.640;23.380;2023-12-14T09:49:27;93145.41;;;10.48;85.52
11808;BME280;5961;42.640;23.380;2023-12-14T09:51:55;93147.38;;;10.51;85.41
11808;BME280;5961;42.640;23.380;2023-12-14T09:54:22;93133.38;;;10.54;85.61
11808;BME280;5961;42.640;23.380;2023-12-14T09:56:49;93141.81;;;10.60;84.97
11808;BME280;5961;42.640;23.380;2023-12-14T09:59:17;93161.25;;;10.64;84.91
11808;BME280;5961;42.640;23.380;2023-12-14T10:01:44;93153.25;;;10.64;84.75
11808;BME280;5961;42.640;23.380;2023-12-14T10:04:13;93154.47;;;10.66;84.47
11808;BME280;5961;42.640;23.380;2023-12-14T10:06:43;93158.00;;;10.74;84.03
11808;BME280;5961;42.640;23.380;2023-12-14T10:09:10;93152.38;;;10.79;83.96
11808;BME280;5961;42.640;23.380;2023-12-14T10:11:39;93141.75;;;10.79;84.05
11808;BME280;5961;42.640;23.380;2023-12-14T10:14:17;93157.06;;;10.85;84.19
11808;BME280;5961;42.640;23.380;2023-12-14T10:16:44;93138.06;;;10.83;83.71
11808;BME280;5961;42.640;23.380;2023-12-14T10:19:11;93141.59;;;10.91;83.61
11808;BME280;5961;42.640;23.380;2023-12-14T10:21:38;93162.84;;;10.91;83.20
11808;BME280;5961;42.640;23.380;2023-12-14T10:24:06;93150.06;;;10.96;82.94
11808;BME280;5961;42.640;23.380;2023-12-14T10:26:33;93144.72;;;10.96;83.08
11808;BME280;5961;42.640;23.380;2023-12-14T10:28:59;93139.44;;;11.00;83.50
11808;BME280;5961;42.640;23.380;2023-12-14T10:31:30;93144.78;;;11.00;83.77
11808;BME280;5961;42.640;23.380;2023-12-14T10:33:57;93148.25;;;11.04;83.26
11808;BME280;5961;42.640;23.380;2023-12-14T10:36:25;93150.16;;;11.03;83.49
11808;BME280;5961;42.640;23.380;2023-12-14T10:38:53;93164.91;;;11.01;82.96
11808;BME280;5961;42.640;23.380;2023-12-14T10:41:24;93172.19;;;11.04;83.35
11808;BME280;5961;42.640;23.380;2023-12-14T10:43:53;93166.09;;;11.03;82.96
11808;BME280;5961;42.640;23.380;2023-12-14T10:46:20;93117.63;;;10.65;83.05
11808;BME280;5961;42.640;23.380;2023-12-14T10:48:49;93153.63;;;11.08;83.38
11808;BME280;5961;42.640;23.380;2023-12-14T10:51:18;93173.44;;;11.10;83.20
11808;BME280;5961;42.640;23.380;2023-12-14T10:53:47;93170.44;;;11.12;83.26
11808;BME280;5961;42.640;23.380;2023-12-14T10:56:15;93153.63;;;10.85;83.16
11808;BME280;5961;42.640;23.380;2023-12-14T10:58:48;93197.22;;;11.03;84.42
11808;BME280;5961;42.640;23.380;2023-12-14T11:01:19;93206.03;;;11.07;87.74
11808;BME280;5961;42.640;23.380;2023-12-14T11:03:46;93210.81;;;10.98;89.85
11808;BME280;5961;42.640;23.380;2023-12-14T11:06:31;93195.94;;;10.93;91.84
11808;BME280;5961;42.640;23.380;2023-12-14T11:08:59;93204.56;;;10.87;93.35
11808;BME280;5961;42.640;23.380;2023-12-14T11:11:29;93192.97;;;10.76;96.27
11808;BME280;5961;42.640;23.380;2023-12-14T11:13:57;93211.56;;;10.76;96.90
11808;BME280;5961;42.640;23.380;2023-12-14T11:16:26;93203.28;;;10.58;98.23
11808;BME280;5961;42.640;23.380;2023-12-14T11:19:28;93221.53;;;10.60;98.62
11808;BME280;5961;42.640;23.380;2023-12-14T11:22:23;93234.38;;;10.58;98.36
11808;BME280;5961;42.640;23.380;2023-12-14T11:24:54;93233.13;;;10.52;98.28
11808;BME280;5961;42.640;23.380;2023-12-14T11:27:26;93259.81;;;10.39;96.38
11808;BME280;5961;42.640;23.380;2023-12-14T11:29:56;93235.81;;;10.32;95.95
11808;BME280;5961;42.640;23.380;2023-12-14T11:32:24;93268.69;;;10.28;95.69
11808;BME280;5961;42.640;23.380;2023-12-14T11:34:51;93246.19;;;10.22;94.69
11808;BME280;5961;42.640;23.380;2023-12-14T11:37:18;93252.28;;;10.07;95.12
11808;BME280;5961;42.640;23.380;2023-12-14T11:39:45;93261.72;;;10.04;94.95
11808;BME280;5961;42.640;23.380;2023-12-14T11:42:18;93275.09;;;9.92;94.29
11808;BME280;5961;42.640;23.380;2023-12-14T11:44:44;93258.00;;;9.89;94.43
11808;BME280;5961;42.640;23.380;2023-12-14T11:47:12;93236.59;;;9.82;94.22
11808;BME280;5961;42.640;23.380;2023-12-14T11:49:39;93274.97;;;9.85;93.93
11808;BME280;5961;42.640;23.380;2023-12-14T11:52:06;93276.69;;;9.77;93.09
11808;BME280;5961;42.640;23.380;2023-12-14T11:54:32;93280.72;;;9.71;93.18
11808;BME280;5961;42.640;23.380;2023-12-14T11:57:01;93296.72;;;9.59;93.15
11808;BME280;5961;42.640;23.380;2023-12-14T11:59:28;93276.38;;;9.63;93.09
11808;BME280;5961;42.640;23.380;2023-12-14T12:01:56;93287.16;;;9.55;93.10
11808;BME280;5961;42.640;23.380;2023-12-14T12:04:24;93249.25;;;9.38;93.02
11808;BME280;5961;42.640;23.380;2023-12-14T12:06:59;93275.78;;;9.38;92.67
11808;BME280;5961;42.640;23.380;2023-12-14T12:09:36;93310.34;;;9.42;92.14
11808;BME280;5961;42.640;23.380;2023-12-14T12:12:07;93282.78;;;9.47;92.11
11808;BME280;5961;42.640;23.380;2023-12-14T12:14:34;93326.34;;;9.46;92.34
11808;BME280;5961;42.640;23.380;2023-12-14T12:17:02;93348.38;;;9.34;92.66
11808;BME280;5961;42.640;23.380;2023-12-14T12:19:31;93327.00;;;9.27;92.70
11808;BME280;5961;42.640;23.380;2023-12-14T12:21:58;93279.59;;;9.25;92.89
11808;BME280;5961;42.640;23.380;2023-12-14T12:24:25;93279.44;;;9.18;92.94
11808;BME280;5961;42.640;23.380;2023-12-14T12:26:53;93250.72;;;8.77;92.83
11808;BME280;5961;42.640;23.380;2023-12-14T12:29:19;93286.53;;;9.14;92.04
11808;BME280;5961;42.640;23.380;2023-12-14T12:31:46;93307.53;;;9.07;92.56
11808;BME280;5961;42.640;23.380;2023-12-14T12:34:13;93307.53;;;9.07;92.21
11808;BME280;5961;42.640;23.380;2023-12-14T12:36:42;93291.47;;;9.00;92.08
11808;BME280;5961;42.640;23.380;2023-12-14T12:39:08;93305.25;;;9.06;92.49
11808;BME280;5961;42.640;23.380;2023-12-14T12:41:35;93299.94;;;9.06;92.40
11808;BME280;5961;42.640;23.380;2023-12-14T12:44:03;93338.81;;;9.02;92.66
11808;BME280;5961;42.640;23.380;2023-12-14T12:46:32;93301.31;;;9.00;92.75
11808;BME280;5961;42.640;23.380;2023-12-14T12:49:00;93259.13;;;8.79;93.04
11808;BME280;5961;42.640;23.380;2023-12-14T12:51:27;93277.50;;;8.88;92.95
11808;BME280;5961;42.640;23.380;2023-12-14T12:53:55;93337.63;;;8.99;93.04
11808;BME280;5961;42.640;23.380;2023-12-14T12:56:22;93307.59;;;8.95;93.97
11808;BME280;5961;42.640;23.380;2023-12-14T12:58:49;93284.84;;;8.78;93.83
11808;BME280;5961;42.640;23.380;2023-12-14T13:01:18;93294.09;;;8.85;94.25
11808;BME280;5961;42.640;23.380;2023-12-14T13:03:45;93294.00;;;8.81;94.68
11808;BME280;5961;42.640;23.380;2023-12-14T13:06:11;93312.13;;;8.79;94.50
11808;BME280;5961;42.640;23.380;2023-12-14T13:08:38;93302.94;;;8.76;94.96
11808;BME280;5961;42.640;23.380;2023-12-14T13:11:07;93302.50;;;8.74;95.05